Aviation Digital Data Service (ADDS)

Output produced by METARs form (1028 UTC 19 February 2019)
found at http://www.aviationweather.gov/metar/data/
 
METAR text: FAPE 191000Z 07013KT 9999 FEW016 25/20 Q1013 NOSIG
Conditions at: FAPE (PORT ELIZABETH , ZA) observed 1000 UTC 19 February 2019
Temperature: 25.0°C (77°F)
Dewpoint: 20.0°C (68°F) [RH = 74%]
Pressure (altimeter): 29.91 inches Hg (1013.0 mb)
Winds: from the ENE (70 degrees) at 15 MPH (13 knots; 6.7 m/s)
Visibility: 6 or more miles (10+ km)
Ceiling: at least 12,000 feet AGL
Clouds: few clouds at 1600 feet AGL
Weather: no significant weather observed at this time

METAR text: FAPE 190955Z 07013KT 9999 FEW016 25/20 Q1013 NOSIG
Conditions at: FAPE (PORT ELIZABETH , ZA) observed 0955 UTC 19 February 2019
Temperature: 25.0°C (77°F)
Dewpoint: 20.0°C (68°F) [RH = 74%]
Pressure (altimeter): 29.91 inches Hg (1013.0 mb)
Winds: from the ENE (70 degrees) at 15 MPH (13 knots; 6.7 m/s)
Visibility: 6 or more miles (10+ km)
Ceiling: at least 12,000 feet AGL
Clouds: few clouds at 1600 feet AGL
Weather: no significant weather observed at this time

METAR text: FAPE 190900Z 06010KT 9999 FEW016 BKN030 23/19 Q1014 NOSIG
Conditions at: FAPE (PORT ELIZABETH , ZA) observed 0900 UTC 19 February 2019
Temperature: 23.0°C (73°F)
Dewpoint: 19.0°C (66°F) [RH = 78%]
Pressure (altimeter): 29.94 inches Hg (1014.0 mb)
Winds: from the ENE (60 degrees) at 12 MPH (10 knots; 5.1 m/s)
Visibility: 6 or more miles (10+ km)
Ceiling: 3000 feet AGL
Clouds: few clouds at 1600 feet AGL
broken clouds at 3000 feet AGL
Weather: no significant weather observed at this time

METAR text: FAPE 190800Z 06009KT 9999 BKN025 22/19 Q1015 NOSIG
Conditions at: FAPE (PORT ELIZABETH , ZA) observed 0800 UTC 19 February 2019
Temperature: 22.0°C (72°F)
Dewpoint: 19.0°C (66°F) [RH = 83%]
Pressure (altimeter): 29.97 inches Hg (1015.0 mb)
Winds: from the ENE (60 degrees) at 10 MPH (9 knots; 4.6 m/s)
Visibility: 6 or more miles (10+ km)
Ceiling: 2500 feet AGL
Clouds: broken clouds at 2500 feet AGL
Weather: no significant weather observed at this time

METAR text: FAPE 190700Z 06008KT 9999 FEW016 BKN024 22/19 Q1015 NOSIG
Conditions at: FAPE (PORT ELIZABETH , ZA) observed 0700 UTC 19 February 2019
Temperature: 22.0°C (72°F)
Dewpoint: 19.0°C (66°F) [RH = 83%]
Pressure (altimeter): 29.97 inches Hg (1015.0 mb)
Winds: from the ENE (60 degrees) at 9 MPH (8 knots; 4.1 m/s)
Visibility: 6 or more miles (10+ km)
Ceiling: 2400 feet AGL
Clouds: few clouds at 1600 feet AGL
broken clouds at 2400 feet AGL
Weather: no significant weather observed at this time

METAR text: FAPE 190600Z 07008KT 9999 BKN024 21/18 Q1015 NOSIG
Conditions at: FAPE (PORT ELIZABETH , ZA) observed 0600 UTC 19 February 2019
Temperature: 21.0°C (70°F)
Dewpoint: 18.0°C (64°F) [RH = 83%]
Pressure (altimeter): 29.97 inches Hg (1015.0 mb)
Winds: from the ENE (70 degrees) at 9 MPH (8 knots; 4.1 m/s)
Visibility: 6 or more miles (10+ km)
Ceiling: 2400 feet AGL
Clouds: broken clouds at 2400 feet AGL
Weather: no significant weather observed at this time

METAR text: FAPE 190500Z 08008KT 9999 BKN025 20/18 Q1015 NOSIG
Conditions at: FAPE (PORT ELIZABETH , ZA) observed 0500 UTC 19 February 2019
Temperature: 20.0°C (68°F)
Dewpoint: 18.0°C (64°F) [RH = 88%]
Pressure (altimeter): 29.97 inches Hg (1015.0 mb)
Winds: from the E (80 degrees) at 9 MPH (8 knots; 4.1 m/s)
Visibility: 6 or more miles (10+ km)
Ceiling: 2500 feet AGL
Clouds: broken clouds at 2500 feet AGL
Weather: no significant weather observed at this time

METAR text: FAPE 190400Z 08007KT CAVOK 19/17 Q1015 NOSIG
Conditions at: FAPE (PORT ELIZABETH , ZA) observed 0400 UTC 19 February 2019
Temperature: 19.0°C (66°F)
Dewpoint: 17.0°C (63°F) [RH = 88%]
Pressure (altimeter): 29.97 inches Hg (1015.0 mb)
Winds: from the E (80 degrees) at 8 MPH (7 knots; 3.6 m/s)
Visibility: 6 or more miles (10+ km)
Ceiling: ceiling and visibility are OK
Clouds: unknown
Weather: no significant weather observed at this time

METAR text: FAPE 190300Z 09007KT CAVOK 19/18 Q1014 NOSIG
Conditions at: FAPE (PORT ELIZABETH , ZA) observed 0300 UTC 19 February 2019
Temperature: 19.0°C (66°F)
Dewpoint: 18.0°C (64°F) [RH = 94%]
Pressure (altimeter): 29.94 inches Hg (1014.0 mb)
Winds: from the E (90 degrees) at 8 MPH (7 knots; 3.6 m/s)
Visibility: 6 or more miles (10+ km)
Ceiling: ceiling and visibility are OK
Clouds: unknown
Weather: no significant weather observed at this time

METAR text: FAPE 190200Z 09008KT CAVOK 19/18 Q1015 NOSIG
Conditions at: FAPE (PORT ELIZABETH , ZA) observed 0200 UTC 19 February 2019
Temperature: 19.0°C (66°F)
Dewpoint: 18.0°C (64°F) [RH = 94%]
Pressure (altimeter): 29.97 inches Hg (1015.0 mb)
Winds: from the E (90 degrees) at 9 MPH (8 knots; 4.1 m/s)
Visibility: 6 or more miles (10+ km)
Ceiling: ceiling and visibility are OK
Clouds: unknown
Weather: no significant weather observed at this time

METAR text: FAPE 190100Z 10007KT 9999 FEW019 19/18 Q1015 NOSIG
Conditions at: FAPE (PORT ELIZABETH , ZA) observed 0100 UTC 19 February 2019
Temperature: 19.0°C (66°F)
Dewpoint: 18.0°C (64°F) [RH = 94%]
Pressure (altimeter): 29.97 inches Hg (1015.0 mb)
Winds: from the E (100 degrees) at 8 MPH (7 knots; 3.6 m/s)
Visibility: 6 or more miles (10+ km)
Ceiling: at least 12,000 feet AGL
Clouds: few clouds at 1900 feet AGL
Weather: no significant weather observed at this time

METAR text: FAPE 190000Z 08006KT 9999 BKN037 19/18 Q1016 NOSIG
Conditions at: FAPE (PORT ELIZABETH , ZA) observed 0000 UTC 19 February 2019
Temperature: 19.0°C (66°F)
Dewpoint: 18.0°C (64°F) [RH = 94%]
Pressure (altimeter): 30.00 inches Hg (1016.0 mb)
Winds: from the E (80 degrees) at 7 MPH (6 knots; 3.1 m/s)
Visibility: 6 or more miles (10+ km)
Ceiling: 3700 feet AGL
Clouds: broken clouds at 3700 feet AGL
Weather: no significant weather observed at this time

METAR text: FAPE 182300Z 07008KT 9999 FEW040 19/18 Q1016 NOSIG
Conditions at: FAPE (PORT ELIZABETH , ZA) observed 2300 UTC 18 February 2019
Temperature: 19.0°C (66°F)
Dewpoint: 18.0°C (64°F) [RH = 94%]
Pressure (altimeter): 30.00 inches Hg (1016.0 mb)
Winds: from the ENE (70 degrees) at 9 MPH (8 knots; 4.1 m/s)
Visibility: 6 or more miles (10+ km)
Ceiling: at least 12,000 feet AGL
Clouds: few clouds at 4000 feet AGL
Weather: no significant weather observed at this time

METAR text: FAPE 182200Z 08011KT CAVOK 20/18 Q1017 NOSIG
Conditions at: FAPE (PORT ELIZABETH , ZA) observed 2200 UTC 18 February 2019
Temperature: 20.0°C (68°F)
Dewpoint: 18.0°C (64°F) [RH = 88%]
Pressure (altimeter): 30.03 inches Hg (1017.0 mb)
Winds: from the E (80 degrees) at 13 MPH (11 knots; 5.7 m/s)
Visibility: 6 or more miles (10+ km)
Ceiling: ceiling and visibility are OK
Clouds: unknown
Weather: no significant weather observed at this time

METAR text: FAPE 182100Z 08010KT CAVOK 20/18 Q1017 NOSIG
Conditions at: FAPE (PORT ELIZABETH , ZA) observed 2100 UTC 18 February 2019
Temperature: 20.0°C (68°F)
Dewpoint: 18.0°C (64°F) [RH = 88%]
Pressure (altimeter): 30.03 inches Hg (1017.0 mb)
Winds: from the E (80 degrees) at 12 MPH (10 knots; 5.1 m/s)
Visibility: 6 or more miles (10+ km)
Ceiling: ceiling and visibility are OK
Clouds: unknown
Weather: no significant weather observed at this time

METAR text: FAPE 182000Z 08011KT 9999 FEW020 20/18 Q1018 NOSIG
Conditions at: FAPE (PORT ELIZABETH , ZA) observed 2000 UTC 18 February 2019
Temperature: 20.0°C (68°F)
Dewpoint: 18.0°C (64°F) [RH = 88%]
Pressure (altimeter): 30.06 inches Hg (1018.0 mb)
Winds: from the E (80 degrees) at 13 MPH (11 knots; 5.7 m/s)
Visibility: 6 or more miles (10+ km)
Ceiling: at least 12,000 feet AGL
Clouds: few clouds at 2000 feet AGL
Weather: no significant weather observed at this time

METAR text: FAPE 181900Z 09013KT 9999 FEW020 20/18 Q1017 NOSIG
Conditions at: FAPE (PORT ELIZABETH , ZA) observed 1900 UTC 18 February 2019
Temperature: 20.0°C (68°F)
Dewpoint: 18.0°C (64°F) [RH = 88%]
Pressure (altimeter): 30.03 inches Hg (1017.0 mb)
Winds: from the E (90 degrees) at 15 MPH (13 knots; 6.7 m/s)
Visibility: 6 or more miles (10+ km)
Ceiling: at least 12,000 feet AGL
Clouds: few clouds at 2000 feet AGL
Weather: no significant weather observed at this time

METAR text: FAPE 181800Z 09013KT 9999 SCT015 20/18 Q1017 TEMPO BKN014
Conditions at: FAPE (PORT ELIZABETH , ZA) observed 1800 UTC 18 February 2019
Temperature: 20.0°C (68°F)
Dewpoint: 18.0°C (64°F) [RH = 88%]
Pressure (altimeter): 30.03 inches Hg (1017.0 mb)
Winds: from the E (90 degrees) at 15 MPH (13 knots; 6.7 m/s)
Visibility: 6 or more miles (10+ km)
Ceiling: at least 12,000 feet AGL
Clouds: scattered clouds at 1500 feet AGL
Weather: no significant weather observed at this time

METAR text: FAPE 181754Z 09013KT 9999 SCT015 20/18 Q1017 TEMPO BKN012
Conditions at: FAPE (PORT ELIZABETH , ZA) observed 1754 UTC 18 February 2019
Temperature: 20.0°C (68°F)
Dewpoint: 18.0°C (64°F) [RH = 88%]
Pressure (altimeter): 30.03 inches Hg (1017.0 mb)
Winds: from the E (90 degrees) at 15 MPH (13 knots; 6.7 m/s)
Visibility: 6 or more miles (10+ km)
Ceiling: at least 12,000 feet AGL
Clouds: scattered clouds at 1500 feet AGL
Weather: no significant weather observed at this time

METAR text: FAPE 181700Z 09014KT 9999 FEW010 BKN015 21/19 Q1016 TEMPO BKN012
Conditions at: FAPE (PORT ELIZABETH , ZA) observed 1700 UTC 18 February 2019
Temperature: 21.0°C (70°F)
Dewpoint: 19.0°C (66°F) [RH = 88%]
Pressure (altimeter): 30.00 inches Hg (1016.0 mb)
Winds: from the E (90 degrees) at 16 MPH (14 knots; 7.2 m/s)
Visibility: 6 or more miles (10+ km)
Ceiling: 1500 feet AGL
Clouds: few clouds at 1000 feet AGL
broken clouds at 1500 feet AGL
Weather: no significant weather observed at this time

METAR text: FAPE 181647Z 08014KT 9999 FEW010 BKN015 21/19 Q1016 TEMPO BKN012
Conditions at: FAPE (PORT ELIZABETH , ZA) observed 1647 UTC 18 February 2019
Temperature: 21.0°C (70°F)
Dewpoint: 19.0°C (66°F) [RH = 88%]
Pressure (altimeter): 30.00 inches Hg (1016.0 mb)
Winds: from the E (80 degrees) at 16 MPH (14 knots; 7.2 m/s)
Visibility: 6 or more miles (10+ km)
Ceiling: 1500 feet AGL
Clouds: few clouds at 1000 feet AGL
broken clouds at 1500 feet AGL
Weather: no significant weather observed at this time

METAR text: FAPE 181601Z 09014KT 9999 BKN012 21/19 Q1016 NOSIG
Conditions at: FAPE (PORT ELIZABETH , ZA) observed 1601 UTC 18 February 2019
Temperature: 21.0°C (70°F)
Dewpoint: 19.0°C (66°F) [RH = 88%]
Pressure (altimeter): 30.00 inches Hg (1016.0 mb)
Winds: from the E (90 degrees) at 16 MPH (14 knots; 7.2 m/s)
Visibility: 6 or more miles (10+ km)
Ceiling: 1200 feet AGL
Clouds: broken clouds at 1200 feet AGL
Weather: no significant weather observed at this time

METAR text: FAPE 181600Z 09013KT 9999 BKN012 22/19 Q1016 NOSIG
Conditions at: FAPE (PORT ELIZABETH , ZA) observed 1600 UTC 18 February 2019
Temperature: 22.0°C (72°F)
Dewpoint: 19.0°C (66°F) [RH = 83%]
Pressure (altimeter): 30.00 inches Hg (1016.0 mb)
Winds: from the E (90 degrees) at 15 MPH (13 knots; 6.7 m/s)
Visibility: 6 or more miles (10+ km)
Ceiling: 1200 feet AGL
Clouds: broken clouds at 1200 feet AGL
Weather: no significant weather observed at this time

METAR text: FAPE 181531Z 09014KT 9999 BKN012 22/19 Q1016 NOSIG
Conditions at: FAPE (PORT ELIZABETH , ZA) observed 1531 UTC 18 February 2019
Temperature: 22.0°C (72°F)
Dewpoint: 19.0°C (66°F) [RH = 83%]
Pressure (altimeter): 30.00 inches Hg (1016.0 mb)
Winds: from the E (90 degrees) at 16 MPH (14 knots; 7.2 m/s)
Visibility: 6 or more miles (10+ km)
Ceiling: 1200 feet AGL
Clouds: broken clouds at 1200 feet AGL
Weather: no significant weather observed at this time

METAR text: FAPE 181504Z 09017KT 9999 SCT012 22/20 Q1016 NOSIG
Conditions at: FAPE (PORT ELIZABETH , ZA) observed 1504 UTC 18 February 2019
Temperature: 22.0°C (72°F)
Dewpoint: 20.0°C (68°F) [RH = 88%]
Pressure (altimeter): 30.00 inches Hg (1016.0 mb)
Winds: from the E (90 degrees) at 20 MPH (17 knots; 8.7 m/s)
Visibility: 6 or more miles (10+ km)
Ceiling: at least 12,000 feet AGL
Clouds: scattered clouds at 1200 feet AGL
Weather: no significant weather observed at this time

METAR text: FAPE 181500Z 09016KT 9999 SCT010 SCT018 23/20 Q1016 TEMPO BKN013
Conditions at: FAPE (PORT ELIZABETH , ZA) observed 1500 UTC 18 February 2019
Temperature: 23.0°C (73°F)
Dewpoint: 20.0°C (68°F) [RH = 83%]
Pressure (altimeter): 30.00 inches Hg (1016.0 mb)
Winds: from the E (90 degrees) at 18 MPH (16 knots; 8.2 m/s)
Visibility: 6 or more miles (10+ km)
Ceiling: at least 12,000 feet AGL
Clouds: scattered clouds at 1000 feet AGL
scattered clouds at 1800 feet AGL
Weather: no significant weather observed at this time

METAR text: FAPE 181431Z 09017KT 9999 SCT010 SCT018 23/20 Q1016 TEMPO BKN013
Conditions at: FAPE (PORT ELIZABETH , ZA) observed 1431 UTC 18 February 2019
Temperature: 23.0°C (73°F)
Dewpoint: 20.0°C (68°F) [RH = 83%]
Pressure (altimeter): 30.00 inches Hg (1016.0 mb)
Winds: from the E (90 degrees) at 20 MPH (17 knots; 8.7 m/s)
Visibility: 6 or more miles (10+ km)
Ceiling: at least 12,000 feet AGL
Clouds: scattered clouds at 1000 feet AGL
scattered clouds at 1800 feet AGL
Weather: no significant weather observed at this time

METAR text: FAPE 181400Z 09014G24KT 070V130 9999 BKN010 23/20 Q1016 TEMPO BKN008
Conditions at: FAPE (PORT ELIZABETH , ZA) observed 1400 UTC 18 February 2019
Temperature: 23.0°C (73°F)
Dewpoint: 20.0°C (68°F) [RH = 83%]
Pressure (altimeter): 30.00 inches Hg (1016.0 mb)
Winds: from the E (90 degrees) at 16 MPH (14 knots; 7.2 m/s)
gusting to 28 MPH (24 knots; 12.3 m/s)
Visibility: 6 or more miles (10+ km)
Ceiling: 1000 feet AGL
Clouds: broken clouds at 1000 feet AGL
Weather: no significant weather observed at this time

METAR text: FAPE 181331Z 11015KT 9999 BKN010 24/19 Q1016 TEMPO BKN008
Conditions at: FAPE (PORT ELIZABETH , ZA) observed 1331 UTC 18 February 2019
Temperature: 24.0°C (75°F)
Dewpoint: 19.0°C (66°F) [RH = 74%]
Pressure (altimeter): 30.00 inches Hg (1016.0 mb)
Winds: from the ESE (110 degrees) at 17 MPH (15 knots; 7.7 m/s)
Visibility: 6 or more miles (10+ km)
Ceiling: 1000 feet AGL
Clouds: broken clouds at 1000 feet AGL
Weather: no significant weather observed at this time

METAR text: FAPE 181300Z 11014KT 9999 SCT015 25/20 Q1016 TEMPO BKN014
Conditions at: FAPE (PORT ELIZABETH , ZA) observed 1300 UTC 18 February 2019
Temperature: 25.0°C (77°F)
Dewpoint: 20.0°C (68°F) [RH = 74%]
Pressure (altimeter): 30.00 inches Hg (1016.0 mb)
Winds: from the ESE (110 degrees) at 16 MPH (14 knots; 7.2 m/s)
Visibility: 6 or more miles (10+ km)
Ceiling: at least 12,000 feet AGL
Clouds: scattered clouds at 1500 feet AGL
Weather: no significant weather observed at this time

METAR text: FAPE 181200Z 10016KT 9999 FEW018 25/19 Q1017 NOSIG
Conditions at: FAPE (PORT ELIZABETH , ZA) observed 1200 UTC 18 February 2019
Temperature: 25.0°C (77°F)
Dewpoint: 19.0°C (66°F) [RH = 69%]
Pressure (altimeter): 30.03 inches Hg (1017.0 mb)
Winds: from the E (100 degrees) at 18 MPH (16 knots; 8.2 m/s)
Visibility: 6 or more miles (10+ km)
Ceiling: at least 12,000 feet AGL
Clouds: few clouds at 1800 feet AGL
Weather: no significant weather observed at this time

METAR text: FAPE 181100Z 11015KT 9999 FEW016 BKN033 25/19 Q1017 NOSIG
Conditions at: FAPE (PORT ELIZABETH , ZA) observed 1100 UTC 18 February 2019
Temperature: 25.0°C (77°F)
Dewpoint: 19.0°C (66°F) [RH = 69%]
Pressure (altimeter): 30.03 inches Hg (1017.0 mb)
Winds: from the ESE (110 degrees) at 17 MPH (15 knots; 7.7 m/s)
Visibility: 6 or more miles (10+ km)
Ceiling: 3300 feet AGL
Clouds: few clouds at 1600 feet AGL
broken clouds at 3300 feet AGL
Weather: no significant weather observed at this time

METAR text: FAPE 181000Z 07011KT 9000 SCT013 BKN022 BKN033 23/19 Q1018 NOSIG
Conditions at: FAPE (PORT ELIZABETH , ZA) observed 1000 UTC 18 February 2019
Temperature: 23.0°C (73°F)
Dewpoint: 19.0°C (66°F) [RH = 78%]
Pressure (altimeter): 30.06 inches Hg (1018.0 mb)
Winds: from the ENE (70 degrees) at 13 MPH (11 knots; 5.7 m/s)
Visibility: 6 miles ( 9 km)
Ceiling: 2200 feet AGL
Clouds: scattered clouds at 1300 feet AGL
broken clouds at 2200 feet AGL
broken clouds at 3300 feet AGL
Weather: no significant weather observed at this time

METAR text: FAPE 180900Z 09012KT 9999 SCT013 BKN036 23/19 Q1018 NOSIG
Conditions at: FAPE (PORT ELIZABETH , ZA) observed 0900 UTC 18 February 2019
Temperature: 23.0°C (73°F)
Dewpoint: 19.0°C (66°F) [RH = 78%]
Pressure (altimeter): 30.06 inches Hg (1018.0 mb)
Winds: from the E (90 degrees) at 14 MPH (12 knots; 6.2 m/s)
Visibility: 6 or more miles (10+ km)
Ceiling: 3600 feet AGL
Clouds: scattered clouds at 1300 feet AGL
broken clouds at 3600 feet AGL
Weather: no significant weather observed at this time

METAR text: FAPE 180800Z 09011KT 060V120 9999 SCT017 BKN036 24/18 Q1019 NOSIG
Conditions at: FAPE (PORT ELIZABETH , ZA) observed 0800 UTC 18 February 2019
Temperature: 24.0°C (75°F)
Dewpoint: 18.0°C (64°F) [RH = 69%]
Pressure (altimeter): 30.09 inches Hg (1019.0 mb)
Winds: from the E (90 degrees) at 13 MPH (11 knots; 5.7 m/s)
Visibility: 6 or more miles (10+ km)
Ceiling: 3600 feet AGL
Clouds: scattered clouds at 1700 feet AGL
broken clouds at 3600 feet AGL
Weather: no significant weather observed at this time

METAR text: FAPE 180700Z 09013KT 9999 SCT015 BKN023 23/18 Q1018 NOSIG
Conditions at: FAPE (PORT ELIZABETH , ZA) observed 0700 UTC 18 February 2019
Temperature: 23.0°C (73°F)
Dewpoint: 18.0°C (64°F) [RH = 73%]
Pressure (altimeter): 30.06 inches Hg (1018.0 mb)
Winds: from the E (90 degrees) at 15 MPH (13 knots; 6.7 m/s)
Visibility: 6 or more miles (10+ km)
Ceiling: 2300 feet AGL
Clouds: scattered clouds at 1500 feet AGL
broken clouds at 2300 feet AGL
Weather: no significant weather observed at this time

METAR text: FAPE 180600Z 10010KT 9999 SCT014 BKN021 22/19 Q1018 NOSIG
Conditions at: FAPE (PORT ELIZABETH , ZA) observed 0600 UTC 18 February 2019
Temperature: 22.0°C (72°F)
Dewpoint: 19.0°C (66°F) [RH = 83%]
Pressure (altimeter): 30.06 inches Hg (1018.0 mb)
Winds: from the E (100 degrees) at 12 MPH (10 knots; 5.1 m/s)
Visibility: 6 or more miles (10+ km)
Ceiling: 2100 feet AGL
Clouds: scattered clouds at 1400 feet AGL
broken clouds at 2100 feet AGL
Weather: no significant weather observed at this time

METAR text: FAPE 180400Z 09005KT 9999 FEW015 SCT028 20/19 Q1018 NOSIG
Conditions at: FAPE (PORT ELIZABETH , ZA) observed 0400 UTC 18 February 2019
Temperature: 20.0°C (68°F)
Dewpoint: 19.0°C (66°F) [RH = 94%]
Pressure (altimeter): 30.06 inches Hg (1018.0 mb)
Winds: from the E (90 degrees) at 6 MPH (5 knots; 2.6 m/s)
Visibility: 6 or more miles (10+ km)
Ceiling: at least 12,000 feet AGL
Clouds: few clouds at 1500 feet AGL
scattered clouds at 2800 feet AGL
Weather: no significant weather observed at this time

METAR text: FAPE 180300Z 11004KT 9999 FEW014 BKN032 20/19 Q1018 TEMPO BKN013
Conditions at: FAPE (PORT ELIZABETH , ZA) observed 0300 UTC 18 February 2019
Temperature: 20.0°C (68°F)
Dewpoint: 19.0°C (66°F) [RH = 94%]
Pressure (altimeter): 30.06 inches Hg (1018.0 mb)
Winds: from the ESE (110 degrees) at 5 MPH (4 knots; 2.1 m/s)
Visibility: 6 or more miles (10+ km)
Ceiling: 3200 feet AGL
Clouds: few clouds at 1400 feet AGL
broken clouds at 3200 feet AGL
Weather: no significant weather observed at this time

METAR text: FAPE 180200Z 12004KT 090V150 9999 FEW018 BKN038 20/19 Q1018 NOSIG
Conditions at: FAPE (PORT ELIZABETH , ZA) observed 0200 UTC 18 February 2019
Temperature: 20.0°C (68°F)
Dewpoint: 19.0°C (66°F) [RH = 94%]
Pressure (altimeter): 30.06 inches Hg (1018.0 mb)
Winds: from the ESE (120 degrees) at 5 MPH (4 knots; 2.1 m/s)
Visibility: 6 or more miles (10+ km)
Ceiling: 3800 feet AGL
Clouds: few clouds at 1800 feet AGL
broken clouds at 3800 feet AGL
Weather: no significant weather observed at this time

METAR text: FAPE 180100Z 12005KT 9999 SCT020 BKN038 20/19 Q1019 NOSIG
Conditions at: FAPE (PORT ELIZABETH , ZA) observed 0100 UTC 18 February 2019
Temperature: 20.0°C (68°F)
Dewpoint: 19.0°C (66°F) [RH = 94%]
Pressure (altimeter): 30.09 inches Hg (1019.0 mb)
Winds: from the ESE (120 degrees) at 6 MPH (5 knots; 2.6 m/s)
Visibility: 6 or more miles (10+ km)
Ceiling: 3800 feet AGL
Clouds: scattered clouds at 2000 feet AGL
broken clouds at 3800 feet AGL
Weather: no significant weather observed at this time

METAR text: FAPE 180000Z 08006KT 9999 SCT020 BKN038 20/19 Q1019 NOSIG
Conditions at: FAPE (PORT ELIZABETH , ZA) observed 0000 UTC 18 February 2019
Temperature: 20.0°C (68°F)
Dewpoint: 19.0°C (66°F) [RH = 94%]
Pressure (altimeter): 30.09 inches Hg (1019.0 mb)
Winds: from the E (80 degrees) at 7 MPH (6 knots; 3.1 m/s)
Visibility: 6 or more miles (10+ km)
Ceiling: 3800 feet AGL
Clouds: scattered clouds at 2000 feet AGL
broken clouds at 3800 feet AGL
Weather: no significant weather observed at this time

METAR text: FAPE 172300Z 07006KT 9999 FEW028 BKN038 21/19 Q1020 NOSIG
Conditions at: FAPE (PORT ELIZABETH , ZA) observed 2300 UTC 17 February 2019
Temperature: 21.0°C (70°F)
Dewpoint: 19.0°C (66°F) [RH = 88%]
Pressure (altimeter): 30.12 inches Hg (1020.0 mb)
Winds: from the ENE (70 degrees) at 7 MPH (6 knots; 3.1 m/s)
Visibility: 6 or more miles (10+ km)
Ceiling: 3800 feet AGL
Clouds: few clouds at 2800 feet AGL
broken clouds at 3800 feet AGL
Weather: no significant weather observed at this time

Forecast for: FAPE (PORT ELIZABETH , ZA)
Text: TAF FAPE 190400Z 1906/2006 08010KT 9999 SCT020 TX26/1912Z TN19/2006Z
Forecast period: 0600 to 0800 UTC 19 February 2019
Forecast type: FROM: standard forecast or significant change
Winds: from the E (80 degrees) at 12 MPH (10 knots; 5.1 m/s)
Visibility: 6 or more miles 10+ km)
Ceiling: at least 12,000 feet AGL
Clouds: scattered clouds at 2000 feet AGL
Weather: no significant weather forecast for this period
Text: FM190800 08015KT CAVOK
Forecast period: 0800 UTC 19 February 2019 to 0200 UTC 20 February 2019
Forecast type: FROM: standard forecast or significant change
Winds: from the E (80 degrees) at 17 MPH (15 knots; 7.7 m/s)
Visibility: 6 or more miles 10+ km)
Ceiling: unknown
Clouds: missing
Weather: NSW  (no significant weather)
Text: TEMPO 1913/1918 09020G30KT
Forecast period: 1300 to 1800 UTC 19 February 2019
Forecast type: TEMPORARY: The following changes expected for less than half the time period
Winds: from the E (90 degrees) at 23 MPH (20 knots; 10.3 m/s)
gusting to 34 MPH (30 knots; 15.4 m/s)
Visibility: missing
Ceiling: unknown
Clouds: missing
Weather: no significant weather forecast for this period
Text: BECMG 2002/2004 23020G30KT BKN012
Forecast period: 0200 to 0600 UTC 20 February 2019
Forecast type: BECOMING: Conditions expected to become as follows by 0400 UTC 20 February 2019
Winds: from the SW (230 degrees) at 23 MPH (20 knots; 10.3 m/s)
gusting to 34 MPH (30 knots; 15.4 m/s)
Visibility: 6 or more miles 10+ km)
Ceiling: 1200 feet AGL
Clouds: broken clouds at 1200 feet AGL
Weather: NSW  (no significant weather)
Text: TEMPO 2003/2006 BKN008
Forecast period: 0300 to 0600 UTC 20 February 2019
Forecast type: TEMPORARY: The following changes expected for less than half the time period
Visibility: missing
Ceiling: 800 feet AGL
Clouds: broken clouds at 800 feet AGL
Weather: no significant weather forecast for this period